sensor_id;sensor_type;location;lat;lon;timestamp;pressure;altitude;pressure_sealevel;temperature;humidity
78073;BME280;67281;48.770;11.440;2023-04-09T00:03:28;97892.63;;;15.52;39.67
78073;BME280;67281;48.770;11.440;2023-04-09T00:05:55;97892.63;;;15.52;40.15
78073;BME280;67281;48.770;11.440;2023-04-09T00:08:22;97885.44;;;15.54;39.51
78073;BME280;67281;48.770;11.440;2023-04-09T00:10:50;97890.00;;;15.52;39.45
78073;BME280;67281;48.770;11.440;2023-04-09T00:13:17;97884.84;;;15.51;40.05
78073;BME280;67281;48.770;11.440;2023-04-09T00:15:57;97877.63;;;15.53;40.05
78073;BME280;67281;48.770;11.440;2023-04-09T00:18:23;97878.59;;;15.52;39.92
78073;BME280;67281;48.770;11.440;2023-04-09T00:20:50;97885.69;;;15.51;39.88
78073;BME280;67281;48.770;11.440;2023-04-09T00:23:17;97883.03;;;15.51;39.87
78073;BME280;67281;48.770;11.440;2023-04-09T00:25:44;97893.59;;;15.51;39.96
78073;BME280;67281;48.770;11.440;2023-04-09T00:28:11;97884.00;;;15.50;39.71
78073;BME280;67281;48.770;11.440;2023-04-09T00:30:37;97884.00;;;15.50;39.56
78073;BME280;67281;48.770;11.440;2023-04-09T00:33:04;97883.16;;;15.50;39.93
78073;BME280;67281;48.770;11.440;2023-04-09T00:35:31;97882.31;;;15.49;39.64
78073;BME280;67281;48.770;11.440;2023-04-09T00:37:58;97881.34;;;15.50;40.04
78073;BME280;67281;48.770;11.440;2023-04-09T00:40:25;97883.28;;;15.48;39.82
78073;BME280;67281;48.770;11.440;2023-04-09T00:42:52;97877.88;;;15.50;40.13
78073;BME280;67281;48.770;11.440;2023-04-09T00:45:19;97880.63;;;15.48;39.81
78073;BME280;67281;48.770;11.440;2023-04-09T00:47:46;97869.94;;;15.50;40.01
78073;BME280;67281;48.770;11.440;2023-04-09T00:50:13;97874.41;;;15.49;39.65
78073;BME280;67281;48.770;11.440;2023-04-09T00:52:39;97874.50;;;15.48;39.93
78073;BME280;67281;48.770;11.440;2023-04-09T00:55:07;97870.06;;;15.48;40.24
78073;BME280;67281;48.770;11.440;2023-04-09T00:57:35;97859.50;;;15.48;40.10
78073;BME280;67281;48.770;11.440;2023-04-09T01:00:02;97865.63;;;15.49;39.47
78073;BME280;67281;48.770;11.440;2023-04-09T01:02:30;97866.59;;;15.48;39.95
78073;BME280;67281;48.770;11.440;2023-04-09T01:04:57;97873.69;;;15.47;39.82
78073;BME280;67281;48.770;11.440;2023-04-09T01:07:34;97872.84;;;15.47;40.17
78073;BME280;67281;48.770;11.440;2023-04-09T01:12:53;97861.44;;;15.46;40.32
78073;BME280;67281;48.770;11.440;2023-04-09T01:15:25;97860.47;;;15.47;39.66
78073;BME280;67281;48.770;11.440;2023-04-09T01:18:04;97872.97;;;15.45;39.69
78073;BME280;67281;48.770;11.440;2023-04-09T01:20:38;97865.88;;;15.45;39.59
78073;BME280;67281;48.770;11.440;2023-04-09T01:28:26;97863.34;;;15.44;39.89
78073;BME280;67281;48.770;11.440;2023-04-09T01:31:08;97858.91;;;15.44;39.63
78073;BME280;67281;48.770;11.440;2023-04-09T01:33:37;97866.97;;;15.43;39.46
78073;BME280;67281;48.770;11.440;2023-04-09T01:36:06;97860.00;;;15.42;39.73
78073;BME280;67281;48.770;11.440;2023-04-09T01:38:34;97861.91;;;15.40;40.03
78073;BME280;67281;48.770;11.440;2023-04-09T01:41:02;97863.59;;;15.41;40.01
78073;BME280;67281;48.770;11.440;2023-04-09T01:43:30;97863.59;;;15.41;39.71
78073;BME280;67281;48.770;11.440;2023-04-09T01:45:59;97868.75;;;15.42;39.81
78073;BME280;67281;48.770;11.440;2023-04-09T01:48:28;97872.38;;;15.41;40.03
78073;BME280;67281;48.770;11.440;2023-04-09T01:50:56;97873.31;;;15.40;39.97
78073;BME280;67281;48.770;11.440;2023-04-09T01:53:23;97872.47;;;15.40;39.65
78073;BME280;67281;48.770;11.440;2023-04-09T01:55:54;97869.72;;;15.41;39.74
78073;BME280;67281;48.770;11.440;2023-04-09T01:58:24;97871.53;;;15.41;39.83
78073;BME280;67281;48.770;11.440;2023-04-09T02:00:56;97875.97;;;15.40;40.08
78073;BME280;67281;48.770;11.440;2023-04-09T02:03:32;97871.66;;;15.39;39.96
78073;BME280;67281;48.770;11.440;2023-04-09T02:06:08;97869.84;;;15.40;39.74
78073;BME280;67281;48.770;11.440;2023-04-09T02:08:43;97876.09;;;15.39;40.13
78073;BME280;67281;48.770;11.440;2023-04-09T02:11:10;97879.69;;;15.38;39.71
78073;BME280;67281;48.770;11.440;2023-04-09T02:13:39;97870.94;;;15.37;39.56
78073;BME280;67281;48.770;11.440;2023-04-09T02:16:08;97874.41;;;15.38;40.23
78073;BME280;67281;48.770;11.440;2023-04-09T02:18:36;97866.47;;;15.38;40.25
78073;BME280;67281;48.770;11.440;2023-04-09T02:21:04;97867.44;;;15.37;39.59
78073;BME280;67281;48.770;11.440;2023-04-09T02:23:31;97874.53;;;15.36;39.80
78073;BME280;67281;48.770;11.440;2023-04-09T02:25:59;97862.03;;;15.38;40.13
78073;BME280;67281;48.770;11.440;2023-04-09T02:28:25;97864.81;;;15.37;40.13
78073;BME280;67281;48.770;11.440;2023-04-09T02:30:52;97863.13;;;15.36;39.88
78073;BME280;67281;48.770;11.440;2023-04-09T02:33:19;97861.44;;;15.35;39.91
78073;BME280;67281;48.770;11.440;2023-04-09T02:35:46;97858.81;;;15.35;39.89
78073;BME280;67281;48.770;11.440;2023-04-09T02:38:12;97856.88;;;15.37;39.39
78073;BME280;67281;48.770;11.440;2023-04-09T02:40:41;97851.72;;;15.35;39.92
78073;BME280;67281;48.770;11.440;2023-04-09T02:43:09;97858.81;;;15.35;39.82
78073;BME280;67281;48.770;11.440;2023-04-09T02:45:36;97860.47;;;15.36;39.59
78073;BME280;67281;48.770;11.440;2023-04-09T02:48:03;97857.13;;;15.34;39.90
78073;BME280;67281;48.770;11.440;2023-04-09T02:50:30;97860.72;;;15.33;39.52
78073;BME280;67281;48.770;11.440;2023-04-09T02:52:56;97857.38;;;15.31;40.04
78073;BME280;67281;48.770;11.440;2023-04-09T02:55:23;97864.31;;;15.32;40.02
78073;BME280;67281;48.770;11.440;2023-04-09T02:57:50;97866.97;;;15.32;39.59
78073;BME280;67281;48.770;11.440;2023-04-09T03:00:17;97874.88;;;15.32;39.81
78073;BME280;67281;48.770;11.440;2023-04-09T03:02:43;97882.09;;;15.30;40.16
78073;BME280;67281;48.770;11.440;2023-04-09T03:05:11;97878.59;;;15.29;39.55
78073;BME280;67281;48.770;11.440;2023-04-09T03:07:37;97883.88;;;15.29;39.72
78073;BME280;67281;48.770;11.440;2023-04-09T03:10:04;97880.41;;;15.29;39.88
78073;BME280;67281;48.770;11.440;2023-04-09T03:12:34;97883.06;;;15.29;39.95
78073;BME280;67281;48.770;11.440;2023-04-09T03:15:01;97883.16;;;15.27;39.59
78073;BME280;67281;48.770;11.440;2023-04-09T03:17:28;97880.53;;;15.27;40.05
78073;BME280;67281;48.770;11.440;2023-04-09T03:19:57;97870.09;;;15.26;39.79
78073;BME280;67281;48.770;11.440;2023-04-09T03:22:24;97879.81;;;15.25;40.41
78073;BME280;67281;48.770;11.440;2023-04-09T03:24:51;97871.16;;;15.23;39.60
78073;BME280;67281;48.770;11.440;2023-04-09T03:27:18;97884.50;;;15.22;39.95
78073;BME280;67281;48.770;11.440;2023-04-09T03:29:44;97888.81;;;15.23;40.08
78073;BME280;67281;48.770;11.440;2023-04-09T03:32:11;97885.22;;;15.24;39.59
78073;BME280;67281;48.770;11.440;2023-04-09T03:34:38;97880.91;;;15.23;39.73
78073;BME280;67281;48.770;11.440;2023-04-09T03:37:05;97883.66;;;15.21;39.53
78073;BME280;67281;48.770;11.440;2023-04-09T03:39:31;97889.91;;;15.20;39.99
78073;BME280;67281;48.770;11.440;2023-04-09T03:41:58;97881.13;;;15.20;39.87
78073;BME280;67281;48.770;11.440;2023-04-09T03:44:25;97888.22;;;15.19;39.70
78073;BME280;67281;48.770;11.440;2023-04-09T03:46:52;97891.09;;;15.16;39.58
78073;BME280;67281;48.770;11.440;2023-04-09T03:49:19;97889.28;;;15.17;40.30
78073;BME280;67281;48.770;11.440;2023-04-09T03:51:45;97892.88;;;15.16;39.55
78073;BME280;67281;48.770;11.440;2023-04-09T03:54:12;97891.22;;;15.15;39.95
78073;BME280;67281;48.770;11.440;2023-04-09T03:56:39;97896.63;;;15.13;40.02
78073;BME280;67281;48.770;11.440;2023-04-09T03:59:07;97894.81;;;15.13;40.10
78073;BME280;67281;48.770;11.440;2023-04-09T04:01:36;97899.13;;;15.15;39.64
78073;BME280;67281;48.770;11.440;2023-04-09T04:04:03;97900.09;;;15.13;39.54
78073;BME280;67281;48.770;11.440;2023-04-09T04:06:32;97895.66;;;15.14;39.96
78073;BME280;67281;48.770;11.440;2023-04-09T04:09:01;97893.13;;;15.12;39.90
78073;BME280;67281;48.770;11.440;2023-04-09T04:11:28;97895.78;;;15.12;39.66
78073;BME280;67281;48.770;11.440;2023-04-09T04:13:55;97890.59;;;15.11;39.91
78073;BME280;67281;48.770;11.440;2023-04-09T04:16:22;97886.28;;;15.10;39.59
78073;BME280;67281;48.770;11.440;2023-04-09T04:18:49;97898.66;;;15.09;40.04
78073;BME280;67281;48.770;11.440;2023-04-09T04:21:16;97898.66;;;15.09;39.41
78073;BME280;67281;48.770;11.440;2023-04-09T04:23:43;97896.97;;;15.08;39.72
78073;BME280;67281;48.770;11.440;2023-04-09T04:26:10;97891.81;;;15.07;39.58
78073;BME280;67281;48.770;11.440;2023-04-09T04:28:38;97893.50;;;15.08;40.11
78073;BME280;67281;48.770;11.440;2023-04-09T04:31:08;97893.59;;;15.06;40.09
78073;BME280;67281;48.770;11.440;2023-04-09T04:33:37;97897.31;;;15.04;40.24
78073;BME280;67281;48.770;11.440;2023-04-09T04:36:11;97899.00;;;15.05;40.02
78073;BME280;67281;48.770;11.440;2023-04-09T04:38:39;97894.69;;;15.04;39.68
78073;BME280;67281;48.770;11.440;2023-04-09T04:41:07;97892.03;;;15.04;39.59
78073;BME280;67281;48.770;11.440;2023-04-09T04:43:35;97893.00;;;15.03;40.03
78073;BME280;67281;48.770;11.440;2023-04-09T04:46:02;97888.69;;;15.02;40.30
78073;BME280;67281;48.770;11.440;2023-04-09T04:48:29;97895.66;;;15.03;40.00
78073;BME280;67281;48.770;11.440;2023-04-09T04:50:58;97899.25;;;15.02;39.67
78073;BME280;67281;48.770;11.440;2023-04-09T04:53:26;97904.53;;;15.02;40.02
78073;BME280;67281;48.770;11.440;2023-04-09T04:55:53;97900.09;;;15.02;39.52
78073;BME280;67281;48.770;11.440;2023-04-09T04:58:20;97904.63;;;15.00;39.85
78073;BME280;67281;48.770;11.440;2023-04-09T05:00:47;97907.16;;;15.02;40.02
78073;BME280;67281;48.770;11.440;2023-04-09T05:03:14;97907.16;;;15.02;39.48
78073;BME280;67281;48.770;11.440;2023-04-09T05:05:41;97904.63;;;15.00;40.01
78073;BME280;67281;48.770;11.440;2023-04-09T05:08:08;97904.63;;;15.00;39.55
78073;BME280;67281;48.770;11.440;2023-04-09T05:10:35;97912.56;;;15.00;39.97
78073;BME280;67281;48.770;11.440;2023-04-09T05:13:02;97922.28;;;15.00;39.67
78073;BME280;67281;48.770;11.440;2023-04-09T05:15:29;97919.50;;;15.01;39.66
78073;BME280;67281;48.770;11.440;2023-04-09T05:17:56;97910.63;;;15.02;39.72
78073;BME280;67281;48.770;11.440;2023-04-09T05:20:23;97920.34;;;15.02;39.45
78073;BME280;67281;48.770;11.440;2023-04-09T05:22:52;97926.47;;;15.02;39.62
78073;BME280;67281;48.770;11.440;2023-04-09T05:25:19;97922.16;;;15.01;39.82
78073;BME280;67281;48.770;11.440;2023-04-09T05:27:46;97929.34;;;14.99;39.97
78073;BME280;67281;48.770;11.440;2023-04-09T05:30:13;97912.56;;;15.00;39.87
78073;BME280;67281;48.770;11.440;2023-04-09T05:32:40;97922.16;;;15.01;39.53
78073;BME280;67281;48.770;11.440;2023-04-09T05:35:07;97920.13;;;15.05;39.24
78073;BME280;67281;48.770;11.440;2023-04-09T05:37:34;97915.78;;;15.04;39.36
78073;BME280;67281;48.770;11.440;2023-04-09T05:40:01;97923.59;;;15.05;39.74
78073;BME280;67281;48.770;11.440;2023-04-09T05:42:27;97929.59;;;15.07;39.73
78073;BME280;67281;48.770;11.440;2023-04-09T05:44:54;97920.84;;;15.07;39.29
78073;BME280;67281;48.770;11.440;2023-04-09T05:47:21;97932.13;;;15.09;39.74
78073;BME280;67281;48.770;11.440;2023-04-09T05:49:48;97932.13;;;15.09;39.53
78073;BME280;67281;48.770;11.440;2023-04-09T05:52:15;97922.28;;;15.11;39.47
78073;BME280;67281;48.770;11.440;2023-04-09T05:54:45;97923.13;;;15.11;39.66
78073;BME280;67281;48.770;11.440;2023-04-09T05:57:12;97920.38;;;15.13;39.55
78073;BME280;67281;48.770;11.440;2023-04-09T05:59:38;97929.97;;;15.14;39.59
78073;BME280;67281;48.770;11.440;2023-04-09T06:02:05;97927.31;;;15.14;39.60
78073;BME280;67281;48.770;11.440;2023-04-09T06:04:32;97922.88;;;15.15;39.77
78073;BME280;67281;48.770;11.440;2023-04-09T06:06:59;97920.97;;;15.17;39.81
78073;BME280;67281;48.770;11.440;2023-04-09T06:09:26;97928.88;;;15.17;39.13
78073;BME280;67281;48.770;11.440;2023-04-09T06:11:53;97935.72;;;15.19;39.33
78073;BME280;67281;48.770;11.440;2023-04-09T06:14:20;97935.63;;;15.21;39.42
78073;BME280;67281;48.770;11.440;2023-04-09T06:16:47;97932.84;;;15.22;39.40
78073;BME280;67281;48.770;11.440;2023-04-09T06:19:15;97932.00;;;15.22;39.60
78073;BME280;67281;48.770;11.440;2023-04-09T06:21:42;97934.53;;;15.23;38.97
78073;BME280;67281;48.770;11.440;2023-04-09T06:24:08;97931.78;;;15.25;39.19
78073;BME280;67281;48.770;11.440;2023-04-09T06:26:35;97931.78;;;15.25;39.28
78073;BME280;67281;48.770;11.440;2023-04-09T06:29:02;97932.38;;;15.28;39.01
78073;BME280;67281;48.770;11.440;2023-04-09T06:31:30;97933.09;;;15.30;39.32
78073;BME280;67281;48.770;11.440;2023-04-09T06:33:57;97933.94;;;15.31;39.22
78073;BME280;67281;48.770;11.440;2023-04-09T06:36:23;97937.41;;;15.31;39.33
78073;BME280;67281;48.770;11.440;2023-04-09T06:38:50;97944.25;;;15.34;39.29
78073;BME280;67281;48.770;11.440;2023-04-09T06:41:20;97947.88;;;15.33;39.38
78073;BME280;67281;48.770;11.440;2023-04-09T06:43:47;97953.75;;;15.36;39.33
78073;BME280;67281;48.770;11.440;2023-04-09T06:46:14;97951.09;;;15.36;38.87
78073;BME280;67281;48.770;11.440;2023-04-09T06:48:43;97944.63;;;15.40;39.47
78073;BME280;67281;48.770;11.440;2023-04-09T06:51:10;97958.66;;;15.41;39.15
78073;BME280;67281;48.770;11.440;2023-04-09T06:53:38;97963.00;;;15.42;38.75
78073;BME280;67281;48.770;11.440;2023-04-09T06:56:06;97948.00;;;15.42;38.98
78073;BME280;67281;48.770;11.440;2023-04-09T06:58:33;97963.72;;;15.44;39.13
78073;BME280;67281;48.770;11.440;2023-04-09T07:00:59;97963.47;;;15.47;39.04
78073;BME280;67281;48.770;11.440;2023-04-09T07:03:28;97964.31;;;15.48;39.43
78073;BME280;67281;48.770;11.440;2023-04-09T07:05:55;97960.84;;;15.47;39.21
78073;BME280;67281;48.770;11.440;2023-04-09T07:08:23;97965.16;;;15.48;39.40
78073;BME280;67281;48.770;11.440;2023-04-09T07:10:50;97955.31;;;15.50;38.83
78073;BME280;67281;48.770;11.440;2023-04-09T07:13:17;97958.78;;;15.51;39.29
78073;BME280;67281;48.770;11.440;2023-04-09T07:15:44;97947.16;;;15.53;39.45
78073;BME280;67281;48.770;11.440;2023-04-09T07:18:11;97946.19;;;15.54;39.17
78073;BME280;67281;48.770;11.440;2023-04-09T07:20:38;97951.34;;;15.56;39.01
78073;BME280;67281;48.770;11.440;2023-04-09T07:23:04;97946.91;;;15.56;38.77
78073;BME280;67281;48.770;11.440;2023-04-09T07:25:31;97945.84;;;15.59;38.64
78073;BME280;67281;48.770;11.440;2023-04-09T07:27:58;97944.16;;;15.58;38.66
78073;BME280;67281;48.770;11.440;2023-04-09T07:30:25;97948.34;;;15.60;39.14
78073;BME280;67281;48.770;11.440;2023-04-09T07:32:52;97950.88;;;15.62;38.93
78073;BME280;67281;48.770;11.440;2023-04-09T07:35:19;97947.38;;;15.61;39.36
78073;BME280;67281;48.770;11.440;2023-04-09T07:37:47;97957.00;;;15.62;39.06
78073;BME280;67281;48.770;11.440;2023-04-09T07:40:13;97955.06;;;15.64;38.83
78073;BME280;67281;48.770;11.440;2023-04-09T07:42:41;97953.16;;;15.66;38.96
78073;BME280;67281;48.770;11.440;2023-04-09T07:45:08;97952.31;;;15.66;39.14
78073;BME280;67281;48.770;11.440;2023-04-09T07:47:35;97964.44;;;15.68;38.89
78073;BME280;67281;48.770;11.440;2023-04-09T07:50:02;97962.50;;;15.70;39.33
78073;BME280;67281;48.770;11.440;2023-04-09T07:52:28;97958.91;;;15.71;38.62
78073;BME280;67281;48.770;11.440;2023-04-09T07:54:55;97968.38;;;15.74;38.92
78073;BME280;67281;48.770;11.440;2023-04-09T07:57:23;97966.59;;;15.74;39.00
78073;BME280;67281;48.770;11.440;2023-04-09T07:59:50;97968.25;;;15.75;39.35
78073;BME280;67281;48.770;11.440;2023-04-09T08:02:16;97979.69;;;15.76;38.74
78073;BME280;67281;48.770;11.440;2023-04-09T08:04:43;97976.31;;;15.74;39.01
78073;BME280;67281;48.770;11.440;2023-04-09T08:07:10;97974.75;;;15.71;39.24
78073;BME280;67281;48.770;11.440;2023-04-09T08:09:37;97978.00;;;15.75;39.13
78073;BME280;67281;48.770;11.440;2023-04-09T08:12:04;97973.44;;;15.77;39.54
78073;BME280;67281;48.770;11.440;2023-04-09T08:14:31;97970.66;;;15.78;39.48
78073;BME280;67281;48.770;11.440;2023-04-09T08:16:58;97975.13;;;15.78;39.58
78073;BME280;67281;48.770;11.440;2023-04-09T08:19:25;97982.91;;;15.80;39.57
78073;BME280;67281;48.770;11.440;2023-04-09T08:21:52;97979.31;;;15.81;39.06
78073;BME280;67281;48.770;11.440;2023-04-09T08:24:18;97980.03;;;15.83;39.58
78073;BME280;67281;48.770;11.440;2023-04-09T08:26:45;97983.41;;;15.85;39.48
78073;BME280;67281;48.770;11.440;2023-04-09T08:29:13;97982.44;;;15.86;39.42
78073;BME280;67281;48.770;11.440;2023-04-09T08:31:40;97987.59;;;15.87;38.81
78073;BME280;67281;48.770;11.440;2023-04-09T08:34:07;97977.88;;;15.88;39.48
78073;BME280;67281;48.770;11.440;2023-04-09T08:36:34;97981.22;;;15.90;39.53
78073;BME280;67281;48.770;11.440;2023-04-09T08:39:02;97980.16;;;15.92;38.97
78073;BME280;67281;48.770;11.440;2023-04-09T08:41:29;97975.69;;;15.93;38.99
78073;BME280;67281;48.770;11.440;2023-04-09T08:43:57;97981.56;;;15.96;38.90
78073;BME280;67281;48.770;11.440;2023-04-09T08:46:25;97984.09;;;15.98;39.25
78073;BME280;67281;48.770;11.440;2023-04-09T08:48:53;97983.25;;;15.97;39.31
78073;BME280;67281;48.770;11.440;2023-04-09T08:51:23;97976.03;;;15.99;39.59
78073;BME280;67281;48.770;11.440;2023-04-09T08:54:00;97974.13;;;16.01;39.37
78073;BME280;67281;48.770;11.440;2023-04-09T08:56:30;97972.06;;;16.05;39.51
78073;BME280;67281;48.770;11.440;2023-04-09T08:58:57;97980.72;;;16.07;39.63
78073;BME280;67281;48.770;11.440;2023-04-09T09:01:29;97979.63;;;16.09;39.40
78073;BME280;67281;48.770;11.440;2023-04-09T09:04:04;97984.69;;;16.13;39.02
78073;BME280;67281;48.770;11.440;2023-04-09T09:06:34;97980.81;;;16.17;39.84
78073;BME280;67281;48.770;11.440;2023-04-09T09:09:11;97982.38;;;16.19;39.63
78073;BME280;67281;48.770;11.440;2023-04-09T09:11:39;97989.34;;;16.20;39.30
78073;BME280;67281;48.770;11.440;2023-04-09T09:14:08;97978.53;;;16.23;39.54
78073;BME280;67281;48.770;11.440;2023-04-09T09:16:37;97976.47;;;16.27;39.18
78073;BME280;67281;48.770;11.440;2023-04-09T09:22:00;97980.28;;;16.34;39.39
78073;BME280;67281;48.770;11.440;2023-04-09T09:24:27;97978.22;;;16.37;38.96
78073;BME280;67281;48.770;11.440;2023-04-09T09:26:54;97968.34;;;16.39;39.64
78073;BME280;67281;48.770;11.440;2023-04-09T09:29:23;97968.09;;;16.42;39.28
78073;BME280;67281;48.770;11.440;2023-04-09T09:31:54;97973.13;;;16.46;38.83
78073;BME280;67281;48.770;11.440;2023-04-09T09:34:22;97959.53;;;16.50;38.93
78073;BME280;67281;48.770;11.440;2023-04-09T09:36:49;97965.66;;;16.51;38.96
78073;BME280;67281;48.770;11.440;2023-04-09T09:39:16;97965.03;;;16.58;39.08
78073;BME280;67281;48.770;11.440;2023-04-09T09:41:44;97970.69;;;16.65;39.13
78073;BME280;67281;48.770;11.440;2023-04-09T09:44:29;97964.41;;;16.66;39.54
78073;BME280;67281;48.770;11.440;2023-04-09T09:46:57;97967.41;;;16.72;38.68
78073;BME280;67281;48.770;11.440;2023-04-09T09:49:24;97972.31;;;16.77;39.07
78073;BME280;67281;48.770;11.440;2023-04-09T09:51:52;97970.38;;;16.79;38.79
78073;BME280;67281;48.770;11.440;2023-04-09T09:54:24;97972.88;;;16.81;38.67
78073;BME280;67281;48.770;11.440;2023-04-09T09:56:51;97973.47;;;16.84;38.89
78073;BME280;67281;48.770;11.440;2023-04-09T09:59:29;97968.63;;;16.89;38.78
78073;BME280;67281;48.770;11.440;2023-04-09T10:02:03;97971.03;;;16.92;38.80
78073;BME280;67281;48.770;11.440;2023-04-09T10:04:34;97964.38;;;16.98;37.86
78073;BME280;67281;48.770;11.440;2023-04-09T10:07:06;97966.91;;;16.99;39.11
78073;BME280;67281;48.770;11.440;2023-04-09T10:09:36;97960.50;;;17.02;38.67
78073;BME280;67281;48.770;11.440;2023-04-09T10:12:06;97960.50;;;17.02;38.43
78073;BME280;67281;48.770;11.440;2023-04-09T10:14:35;97963.03;;;17.03;38.58
78073;BME280;67281;48.770;11.440;2023-04-09T10:17:03;97972.63;;;17.04;38.79
78073;BME280;67281;48.770;11.440;2023-04-09T10:19:30;97971.81;;;17.14;38.26
78073;BME280;67281;48.770;11.440;2023-04-09T10:22:09;97969.63;;;17.19;37.74
78073;BME280;67281;48.770;11.440;2023-04-09T10:24:37;97971.31;;;17.20;38.58
78073;BME280;67281;48.770;11.440;2023-04-09T10:27:14;97961.69;;;17.19;37.89
78073;BME280;67281;48.770;11.440;2023-04-09T10:29:47;97960.19;;;17.26;37.72
78073;BME280;67281;48.770;11.440;2023-04-09T10:32:21;97967.75;;;17.30;37.73
78073;BME280;67281;48.770;11.440;2023-04-09T10:34:49;97960.91;;;17.28;37.54
78073;BME280;67281;48.770;11.440;2023-04-09T10:37:24;97964.25;;;17.30;38.31
78073;BME280;67281;48.770;11.440;2023-04-09T10:39:52;97965.22;;;17.29;38.15
78073;BME280;67281;48.770;11.440;2023-04-09T10:42:36;97962.88;;;17.35;37.82
78073;BME280;67281;48.770;11.440;2023-04-09T10:45:13;97959.59;;;17.43;38.11
78073;BME280;67281;48.770;11.440;2023-04-09T10:47:42;97961.25;;;17.44;37.86
78073;BME280;67281;48.770;11.440;2023-04-09T10:50:26;97960.16;;;17.47;37.84
78073;BME280;67281;48.770;11.440;2023-04-09T10:52:57;97967.72;;;17.51;37.58
78073;BME280;67281;48.770;11.440;2023-04-09T10:58:06;97962.97;;;17.55;38.28
78073;BME280;67281;48.770;11.440;2023-04-09T11:00:39;97958.91;;;17.51;37.88
78073;BME280;67281;48.770;11.440;2023-04-09T11:03:26;97958.78;;;17.52;38.12
78073;BME280;67281;48.770;11.440;2023-04-09T11:05:57;97951.53;;;17.54;37.73
78073;BME280;67281;48.770;11.440;2023-04-09T11:08:30;97950.13;;;17.50;37.62
78073;BME280;67281;48.770;11.440;2023-04-09T11:10:58;97950.13;;;17.50;37.83
78073;BME280;67281;48.770;11.440;2023-04-09T11:13:29;97949.03;;;17.53;37.85
78073;BME280;67281;48.770;11.440;2023-04-09T11:15:56;97940.94;;;17.54;38.11
78073;BME280;67281;48.770;11.440;2023-04-09T11:18:28;97940.09;;;17.54;38.54
78073;BME280;67281;48.770;11.440;2023-04-09T11:21:00;97945.72;;;17.60;38.00
78073;BME280;67281;48.770;11.440;2023-04-09T11:23:27;97940.75;;;17.67;37.58
78073;BME280;67281;48.770;11.440;2023-04-09T11:25:54;97942.72;;;17.84;37.67
78073;BME280;67281;48.770;11.440;2023-04-09T11:28:22;97941.50;;;17.98;37.90
78073;BME280;67281;48.770;11.440;2023-04-09T11:30:50;97941.66;;;18.06;37.40
78073;BME280;67281;48.770;11.440;2023-04-09T11:33:17;97937.34;;;18.05;38.08
78073;BME280;67281;48.770;11.440;2023-04-09T11:35:46;97934.41;;;18.08;37.64
78073;BME280;67281;48.770;11.440;2023-04-09T11:38:13;97932.47;;;18.20;38.17
78073;BME280;67281;48.770;11.440;2023-04-09T11:40:41;97928.28;;;18.27;37.59
78073;BME280;67281;48.770;11.440;2023-04-09T11:43:15;97926.06;;;18.32;37.41
78073;BME280;67281;48.770;11.440;2023-04-09T11:45:42;97934.84;;;18.23;37.49
78073;BME280;67281;48.770;11.440;2023-04-09T11:48:10;97932.88;;;18.15;38.06
78073;BME280;67281;48.770;11.440;2023-04-09T11:50:37;97943.34;;;18.07;37.69
78073;BME280;67281;48.770;11.440;2023-04-09T11:53:20;97933.56;;;18.08;38.02
78073;BME280;67281;48.770;11.440;2023-04-09T11:55:51;97935.81;;;18.12;37.81
78073;BME280;67281;48.770;11.440;2023-04-09T11:58:24;97935.25;;;18.18;37.81
78073;BME280;67281;48.770;11.440;2023-04-09T12:00:53;97934.84;;;18.13;37.73
78073;BME280;67281;48.770;11.440;2023-04-09T12:03:28;97938.06;;;18.26;37.96
78073;BME280;67281;48.770;11.440;2023-04-09T12:05:59;97938.06;;;18.26;37.54
78073;BME280;67281;48.770;11.440;2023-04-09T12:08:27;97944.63;;;18.22;37.87
78073;BME280;67281;48.770;11.440;2023-04-09T12:10:54;97935.13;;;18.39;37.76
78073;BME280;67281;48.770;11.440;2023-04-09T12:13:20;97939.19;;;18.53;37.35
78073;BME280;67281;48.770;11.440;2023-04-09T12:15:48;97932.47;;;18.68;37.17
78073;BME280;67281;48.770;11.440;2023-04-09T12:18:15;97931.09;;;18.54;37.80
78073;BME280;67281;48.770;11.440;2023-04-09T12:20:45;97934.88;;;18.52;37.73
78073;BME280;67281;48.770;11.440;2023-04-09T12:23:13;97932.63;;;18.76;37.08
78073;BME280;67281;48.770;11.440;2023-04-09T12:25:43;97928.69;;;18.80;36.81
78073;BME280;67281;48.770;11.440;2023-04-09T12:28:12;97935.00;;;18.69;37.31
78073;BME280;67281;48.770;11.440;2023-04-09T12:30:41;97924.38;;;18.79;37.70
78073;BME280;67281;48.770;11.440;2023-04-09T12:33:09;97928.66;;;18.99;36.96
78073;BME280;67281;48.770;11.440;2023-04-09T12:35:37;97924.03;;;19.11;36.60
78073;BME280;67281;48.770;11.440;2023-04-09T12:38:04;97917.31;;;19.17;36.62
78073;BME280;67281;48.770;11.440;2023-04-09T12:40:31;97917.75;;;19.02;36.56
78073;BME280;67281;48.770;11.440;2023-04-09T12:42:58;97915.13;;;18.93;37.10
78073;BME280;67281;48.770;11.440;2023-04-09T12:45:25;97923.81;;;18.85;37.32
78073;BME280;67281;48.770;11.440;2023-04-09T12:47:53;97911.66;;;18.83;37.55
78073;BME280;67281;48.770;11.440;2023-04-09T12:50:20;97912.91;;;18.69;37.49
78073;BME280;67281;48.770;11.440;2023-04-09T12:52:47;97921.31;;;18.64;37.54
78073;BME280;67281;48.770;11.440;2023-04-09T12:55:14;97909.44;;;18.68;37.66
78073;BME280;67281;48.770;11.440;2023-04-09T12:57:43;97913.22;;;18.66;36.86
78073;BME280;67281;48.770;11.440;2023-04-09T13:00:11;97909.41;;;18.59;37.76
78073;BME280;67281;48.770;11.440;2023-04-09T13:02:38;97910.09;;;18.90;36.80
78073;BME280;67281;48.770;11.440;2023-04-09T13:05:05;97906.69;;;19.17;37.36
78073;BME280;67281;48.770;11.440;2023-04-09T13:07:33;97904.34;;;19.31;37.48
78073;BME280;67281;48.770;11.440;2023-04-09T13:09:59;97903.91;;;19.09;37.25
78073;BME280;67281;48.770;11.440;2023-04-09T13:12:27;97914.16;;;18.94;37.62